Time;durP1;ratioP1;P1;durP2;ratioP2;P2;SDS_P1;SDS_P2;PMS_P1;PMS_P2;Temp;Humidity;BMP_temperature;BMP_pressure;BME280_temperature;BME280_humidity;BME280_pressure;Samples;Min_cycle;Max_cycle;Signal;HPM_P1;HPM_P2
2021/12/13 00:00:53;;;;;;;13.50;7.93;;;9.10;99.90;;;7.59;100.00;102148.38;2568720;30;137359;-39
2021/12/13 00:03:40;;;;;;;13.93;7.32;;;9.20;99.90;;;7.57;100.00;102144.97;2566854;30;137408;-39
2021/12/13 00:06:15;;;;;;;13.57;7.68;;;9.10;99.90;;;7.58;100.00;102143.97;2567661;30;139152;-39
2021/12/13 00:08:52;;;;;;;12.85;7.85;;;9.10;99.90;;;7.59;100.00;102142.97;2569189;30;137573;-39
2021/12/13 00:11:26;;;;;;;12.80;7.45;;;9.10;99.90;;;7.52;100.00;102148.16;2568598;30;138307;-39
2021/12/13 00:14:19;;;;;;;11.25;7.43;;;9.10;99.90;;;7.59;100.00;102151.94;2567931;30;138009;-39
2021/12/13 00:17:01;;;;;;;11.57;6.95;;;9.10;99.90;;;7.54;100.00;102151.56;2568346;30;137087;-39
2021/12/13 00:20:27;;;;;;;11.45;7.40;;;9.10;99.90;;;7.54;100.00;102148.00;2569049;30;137531;-39
2021/12/13 00:23:01;;;;;;;11.60;7.22;;;9.10;99.90;;;7.56;100.00;102159.53;2567691;30;138465;-39
2021/12/13 00:25:31;;;;;;;14.38;7.15;;;9.10;99.90;;;7.53;100.00;102159.88;2567282;30;137512;-39
2021/12/13 00:28:13;;;;;;;12.98;7.00;;;9.10;99.90;;;7.47;100.00;102150.53;2566768;30;137885;-39
2021/12/13 00:31:26;;;;;;;11.10;6.90;;;9.10;99.90;;;7.55;100.00;102157.84;2567126;30;137565;-39
2021/12/13 00:34:29;;;;;;;12.93;6.80;;;9.10;99.90;;;7.52;100.00;102153.59;2568668;30;139233;-39
2021/12/13 00:37:18;;;;;;;10.40;6.53;;;9.10;99.90;;;7.49;100.00;102154.75;2568300;30;136926;-39
2021/12/13 00:41:01;;;;;;;12.13;7.25;;;9.10;99.90;;;7.44;100.00;102164.41;2567235;30;139331;-39
2021/12/13 00:43:42;;;;;;;10.95;6.05;;;9.00;99.90;;;7.47;100.00;102155.94;2568154;30;137730;-39
2021/12/13 00:46:14;;;;;;;10.20;6.20;;;9.00;99.90;;;7.44;100.00;102157.09;2568335;30;139310;-39
2021/12/13 00:48:48;;;;;;;13.60;6.45;;;9.00;99.90;;;7.44;100.00;102161.69;2567956;30;137520;-39
2021/12/13 00:51:22;;;;;;;12.00;6.20;;;9.00;99.90;;;7.43;100.00;102160.00;2568196;30;137382;-39
2021/12/13 00:53:52;;;;;;;10.35;5.90;;;9.00;99.90;;;7.39;100.00;102170.31;2567878;30;137617;-40
2021/12/13 00:56:54;;;;;;;9.65;5.72;;;9.00;99.90;;;7.32;100.00;102161.94;2566303;30;137343;-39
2021/12/13 00:59:54;;;;;;;11.70;6.50;;;8.90;99.90;;;7.27;100.00;102158.84;2567992;30;137315;-39
2021/12/13 01:02:30;;;;;;;;;;;8.90;99.90;;;7.22;100.00;102165.75;2567647;30;137160;-39
2021/12/13 01:05:53;;;;;;;11.23;5.32;;;8.80;99.90;;;7.18;100.00;102168.78;2567705;30;137080;-39
2021/12/13 01:09:37;;;;;;;9.27;5.53;;;8.80;99.90;;;7.18;100.00;102176.94;2566205;30;138956;-39
2021/12/13 01:12:13;;;;;;;7.80;4.95;;;8.80;99.90;;;7.18;100.00;102171.50;2567119;30;137525;-39
2021/12/13 01:15:04;;;;;;;10.00;4.70;;;8.80;99.90;;;7.18;100.00;102167.97;2567006;30;139081;-40
2021/12/13 01:20:33;;;;;;;8.43;4.95;;;8.70;99.90;;;7.14;100.00;102174.69;2568183;30;136590;-39
2021/12/13 01:23:27;;;;;;;10.35;5.22;;;8.70;99.90;;;7.08;100.00;102178.91;2564863;30;137481;-39
2021/12/13 01:26:02;;;;;;;6.95;4.57;;;8.70;99.90;;;7.08;100.00;102172.59;2567573;30;136682;-40
2021/12/13 01:28:44;;;;;;;8.77;4.72;;;8.70;99.90;;;7.08;100.00;102175.31;2568149;30;138260;-39
2021/12/13 01:31:29;;;;;;;7.50;4.95;;;8.70;99.90;;;7.04;100.00;102170.19;2568580;30;138322;-39
2021/12/13 01:34:01;;;;;;;7.28;4.25;;;8.60;99.90;;;7.07;100.00;102177.19;2568569;30;136838;-39
2021/12/13 01:36:42;;;;;;;8.85;4.88;;;8.60;99.90;;;7.05;100.00;102171.91;2567625;30;137475;-39
2021/12/13 01:39:25;;;;;;;8.00;4.45;;;8.60;99.90;;;6.99;100.00;102174.38;2566795;30;137358;-39
2021/12/13 01:42:02;;;;;;;8.73;5.03;;;8.60;99.90;;;7.03;100.00;102182.06;2567024;30;137375;-39
2021/12/13 01:44:36;;;;;;;7.35;4.25;;;8.60;99.90;;;6.97;100.00;102182.69;2568167;30;137315;-39
2021/12/13 01:47:11;;;;;;;7.40;4.50;;;8.60;99.90;;;6.97;100.00;102182.69;2568523;30;137351;-39
2021/12/13 01:49:51;;;;;;;8.57;4.93;;;8.60;99.90;;;6.99;100.00;102186.09;2568262;30;137414;-39
2021/12/13 01:52:30;;;;;;;6.82;3.85;;;8.60;99.90;;;6.98;100.00;102192.53;2566264;30;138602;-39
2021/12/13 01:55:17;;;;;;;7.00;4.28;;;8.60;99.90;;;7.01;100.00;102189.50;2567643;30;138366;-39
2021/12/13 01:57:53;;;;;;;7.93;4.82;;;8.60;99.90;;;6.96;100.00;102186.41;2567877;30;140575;-39
2021/12/13 02:01:08;;;;;;;7.78;4.57;;;8.60;99.90;;;6.97;100.00;102193.53;2568533;30;137472;-39
2021/12/13 02:03:22;;;;;;;7.93;4.45;;;8.50;99.90;;;6.95;100.00;102192.84;2568181;30;137410;-39
2021/12/13 02:05:50;;;;;;;7.47;4.47;;;8.50;99.90;;;6.94;100.00;102190.28;2568282;30;137481;-39
2021/12/13 02:08:23;;;;;;;6.53;4.15;;;8.50;99.90;;;6.88;100.00;102195.31;2567136;30;139162;-39
2021/12/13 02:10:55;;;;;;;7.05;4.25;;;8.50;99.90;;;6.84;100.00;102198.50;2567595;30;137989;-39
2021/12/13 02:13:38;;;;;;;6.18;3.45;;;8.40;99.90;;;6.78;100.00;102194.56;2567179;30;137109;-39
2021/12/13 02:18:59;;;;;;;6.07;4.32;;;8.40;99.90;;;6.80;100.00;102188.97;2567440;30;139314;-39
2021/12/13 02:21:36;;;;;;;7.47;4.32;;;8.40;99.90;;;6.84;100.00;102193.94;2568383;30;137282;-39
2021/12/13 02:24:11;;;;;;;6.20;4.10;;;8.40;99.90;;;6.78;100.00;102182.84;2566336;30;137772;-40
2021/12/13 02:26:46;;;;;;;7.70;3.90;;;8.40;99.90;;;6.71;100.00;102179.88;2565256;30;136981;-40
2021/12/13 02:29:30;;;;;;;5.97;3.50;;;8.40;99.90;;;6.72;100.00;102185.16;2568402;30;138265;-39
2021/12/13 02:32:00;;;;;;;5.85;3.63;;;8.30;99.90;;;6.74;100.00;102179.56;2568216;30;136723;-39
2021/12/13 02:34:30;;;;;;;6.43;3.67;;;8.30;99.90;;;6.78;100.00;102182.84;2566879;30;139174;-39
2021/12/13 02:36:58;;;;;;;6.90;3.67;;;8.40;99.90;;;6.84;100.00;102188.50;2564810;30;137369;-39
2021/12/13 02:39:35;;;;;;;6.72;3.63;;;8.40;99.90;;;6.83;100.00;102186.81;2567240;30;139070;-40
2021/12/13 02:42:08;;;;;;;5.35;3.40;;;8.40;99.90;;;6.79;100.00;102185.41;2567387;30;136789;-39
2021/12/13 02:44:47;;;;;;;6.40;3.63;;;8.40;99.90;;;6.80;100.00;102186.25;2566333;30;138180;-39
2021/12/13 02:47:41;;;;;;;;;;;8.40;99.90;;;6.81;100.00;102185.25;2568409;30;137562;-39
2021/12/13 02:50:37;;;;;;;5.97;3.30;;;8.40;99.90;;;6.75;100.00;102189.41;2566656;30;138338;-39
2021/12/13 02:53:06;;;;;;;5.45;3.40;;;8.40;99.90;;;6.72;100.00;102185.16;2567259;30;137290;-39
2021/12/13 02:55:34;;;;;;;6.60;4.00;;;8.30;99.90;;;6.76;100.00;102185.69;2565019;30;137403;-39
2021/12/13 02:58:08;;;;;;;6.65;3.70;;;8.30;99.90;;;6.76;100.00;102193.81;2567378;30;138348;-39
2021/12/13 03:00:50;;;;;;;7.28;3.40;;;8.40;99.90;;;6.79;100.00;102192.69;2566869;30;138285;-39
2021/12/13 03:03:25;;;;;;;5.32;3.28;;;8.40;99.90;;;6.83;100.00;102196.78;2567978;30;137532;-39
2021/12/13 03:05:57;;;;;;;6.38;3.20;;;8.40;99.90;;;6.80;100.00;102184.41;2567990;30;137441;-39
2021/12/13 03:08:41;;;;;;;5.72;3.60;;;8.40;99.90;;;6.80;100.00;102186.25;2568262;30;137048;-39
2021/12/13 03:11:27;;;;;;;6.10;3.70;;;8.40;99.90;;;6.83;100.00;102196.78;2566880;30;138137;-39
2021/12/13 03:14:25;;;;;;;5.68;3.53;;;8.40;99.90;;;6.86;100.00;102204.59;2567855;30;136932;-39
2021/12/13 03:17:01;;;;;;;6.35;3.40;;;8.40;99.90;;;6.90;100.00;102206.03;2567749;30;139114;-39
2021/12/13 03:19:40;;;;;;;6.13;3.83;;;8.40;99.90;;;6.91;100.00;102211.28;2566359;30;136739;-39
2021/12/13 03:22:38;;;;;;;6.38;3.60;;;8.50;99.90;;;6.90;100.00;102211.47;2568742;30;138255;-39
2021/12/13 03:25:26;;;;;;;5.57;3.53;;;8.50;99.90;;;6.91;100.00;102211.28;2566867;30;136906;-40
2021/12/13 03:28:43;;;;;;;6.43;3.50;;;8.50;99.90;;;6.89;100.00;102217.88;2568425;30;137896;-39
2021/12/13 03:31:25;;;;;;;6.53;3.47;;;8.50;99.90;;;6.89;100.00;102213.31;2567947;30;137252;-39
2021/12/13 03:34:18;;;;;;;7.20;3.28;;;8.50;99.90;;;6.87;100.00;102209.91;2567874;30;137241;-40
2021/12/13 03:37:26;;;;;;;6.05;3.63;;;8.50;99.90;;;6.80;100.00;102197.09;2569844;30;138039;-39
2021/12/13 03:39:59;;;;;;;6.18;3.38;;;8.40;99.90;;;6.95;100.00;102205.56;2570973;30;137896;-39
2021/12/13 03:42:35;;;;;;;6.10;3.88;;;8.50;99.90;;;6.91;100.00;102213.16;2567058;30;137330;-39
2021/12/13 03:45:14;;;;;;;6.72;3.42;;;8.50;99.90;;;6.90;100.00;102215.00;2569691;30;137355;-39
2021/12/13 03:47:49;;;;;;;5.93;3.38;;;8.50;99.90;;;6.89;100.00;102215.16;2569464;30;137147;-39
2021/12/13 03:50:23;;;;;;;5.70;3.00;;;8.50;99.90;;;6.93;100.00;102218.41;2570630;30;137458;-39
2021/12/13 03:53:08;;;;;;;6.20;3.47;;;8.50;99.90;;;6.89;100.00;102221.44;2570860;30;138062;-39
2021/12/13 03:55:40;;;;;;;8.75;4.00;;;8.50;99.90;;;6.86;100.00;102220.88;2569089;30;137769;-39
2021/12/13 03:58:12;;;;;;;6.47;3.50;;;8.40;99.90;;;6.81;100.00;102220.50;2570689;30;137384;-39
2021/12/13 04:00:51;;;;;;;6.32;3.47;;;8.40;99.90;;;6.85;100.00;102227.31;2568553;30;138229;-39
2021/12/13 04:03:21;;;;;;;6.30;3.72;;;8.40;99.90;;;6.88;100.00;102227.88;2569035;30;138180;-39
2021/12/13 04:05:52;;;;;;;6.35;3.55;;;8.50;99.90;;;6.90;100.00;102225.88;2565379;30;137521;-39
2021/12/13 04:08:21;;;;;;;5.60;3.58;;;8.50;99.90;;;6.86;100.00;102223.59;2567493;30;137878;-39
2021/12/13 04:10:58;;;;;;;5.55;3.60;;;8.40;99.90;;;6.88;100.00;102227.00;2569558;30;136907;-39
2021/12/13 04:13:32;;;;;;;7.70;3.88;;;8.40;99.90;;;6.83;100.00;102215.78;2570326;30;138372;-39
2021/12/13 04:17:02;;;;;;;7.40;3.92;;;8.50;99.90;;;6.87;100.00;102222.59;2569414;30;138140;-39
2021/12/13 04:19:47;;;;;;;6.10;3.88;;;8.40;99.90;;;6.86;100.00;102218.19;2567976;30;137785;-39
2021/12/13 04:22:22;;;;;;;6.95;3.80;;;8.50;99.90;;;6.89;100.00;102210.59;2568965;30;138194;-39
2021/12/13 04:25:17;;;;;;;7.78;4.03;;;8.40;99.90;;;6.87;100.00;102219.88;2570024;30;137577;-39
2021/12/13 04:27:53;;;;;;;6.65;4.10;;;8.40;99.90;;;6.86;100.00;102223.59;2569651;30;137353;-39
2021/12/13 04:30:36;;;;;;;7.43;4.05;;;8.40;99.90;;;6.88;100.00;102227.00;2569745;30;136886;-39
2021/12/13 04:33:12;;;;;;;8.40;3.88;;;8.40;99.90;;;6.84;100.00;102231.03;2571079;30;137767;-39
2021/12/13 04:35:42;;;;;;;6.30;4.40;;;8.40;99.90;;;6.81;100.00;102220.50;2569155;30;137426;-39
2021/12/13 04:38:09;;;;;;;6.80;4.25;;;8.40;99.90;;;6.84;100.00;102221.06;2569912;30;138853;-39
2021/12/13 04:40:40;;;;;;;;;;;8.40;99.90;;;6.91;100.00;102232.16;2571048;30;138338;-39
2021/12/13 04:43:18;;;;;;;8.00;4.00;;;8.40;99.90;;;6.93;100.00;102227.44;2572097;30;138388;-39
2021/12/13 04:45:55;;;;;;;8.25;4.13;;;8.50;99.90;;;6.94;100.00;102229.13;2567889;30;137570;-39
2021/12/13 04:48:30;;;;;;;6.75;3.95;;;8.50;99.90;;;6.88;100.00;102227.88;2569470;30;138458;-39
2021/12/13 04:51:15;;;;;;;8.10;4.38;;;8.50;99.90;;;6.83;100.00;102229.34;2567905;30;137256;-39
2021/12/13 04:53:48;;;;;;;6.50;3.92;;;8.40;99.90;;;6.85;100.00;102227.31;2568400;30;138336;-39
2021/12/13 04:56:24;;;;;;;8.27;4.38;;;8.40;99.90;;;6.79;100.00;102223.38;2568572;30;137610;-39
2021/12/13 04:58:56;;;;;;;6.28;4.30;;;8.40;99.90;;;6.80;100.00;102224.22;2569388;30;139101;-39
2021/12/13 05:01:26;;;;;;;6.90;4.40;;;8.40;99.90;;;6.76;100.00;102227.25;2571214;30;138011;-39
2021/12/13 05:04:01;;;;;;;7.43;4.47;;;8.40;99.90;;;6.77;100.00;102225.41;2569519;30;140804;-39
2021/12/13 05:06:35;;;;;;;8.82;4.50;;;8.40;99.90;;;6.73;100.00;102221.25;2569576;30;136658;-39
2021/12/13 05:09:09;;;;;;;8.55;4.32;;;8.40;99.90;;;6.71;100.00;102235.00;2568751;30;139258;-39
2021/12/13 05:12:14;;;;;;;8.65;4.72;;;8.30;99.90;;;6.72;100.00;102219.56;2568561;30;138052;-39
2021/12/13 05:14:55;;;;;;;9.45;4.78;;;8.30;99.90;;;6.71;100.00;102221.44;2569549;30;138985;-39
2021/12/13 05:17:31;;;;;;;6.95;4.25;;;8.30;99.90;;;6.70;100.00;102227.88;2567764;30;137386;-39
2021/12/13 05:20:21;;;;;;;9.02;5.13;;;8.30;99.90;;;6.73;100.00;102221.25;2568624;30;137244;-39
2021/12/13 05:23:05;;;;;;;7.65;4.72;;;8.30;99.90;;;6.72;100.00;102223.13;2570363;30;138388;-39
2021/12/13 05:25:45;;;;;;;8.18;4.72;;;8.30;99.90;;;6.69;100.00;102226.16;2570067;30;138493;-39
2021/12/13 05:28:22;;;;;;;7.30;4.22;;;8.30;99.90;;;6.69;100.00;102223.44;2567954;30;137766;-39
2021/12/13 05:31:02;;;;;;;8.23;4.68;;;8.30;99.90;;;6.69;100.00;102228.00;2567660;30;137325;-39
2021/12/13 05:33:35;;;;;;;6.53;4.03;;;8.30;99.90;;;6.69;100.00;102228.88;2569503;30;137059;-39
2021/12/13 05:36:25;;;;;;;7.30;4.40;;;8.30;99.90;;;6.67;100.00;102228.16;2568919;30;139394;-39
2021/12/13 05:39:20;;;;;;;7.28;4.43;;;8.30;99.90;;;6.65;100.00;102215.75;2569895;30;137288;-39
2021/12/13 05:42:00;;;;;;;6.40;4.05;;;8.30;99.90;;;6.63;100.00;102221.34;2567020;30;139841;-39
2021/12/13 05:44:34;;;;;;;7.22;4.05;;;8.20;99.90;;;6.61;100.00;102221.50;2568983;30;136994;-38
2021/12/13 05:47:16;;;;;;;6.80;4.18;;;8.20;99.90;;;6.61;100.00;102237.75;2568534;30;139163;-39
2021/12/13 05:49:45;;;;;;;7.70;4.15;;;8.20;99.90;;;6.63;100.00;102234.91;2567950;30;138458;-39
2021/12/13 05:52:19;;;;;;;7.75;3.67;;;8.20;99.90;;;6.62;100.00;102235.88;2569208;30;138286;-39
2021/12/13 05:54:58;;;;;;;6.93;3.80;;;8.20;99.90;;;6.65;100.00;102235.59;2567318;30;136931;-39
2021/12/13 05:57:34;;;;;;;7.07;4.03;;;8.20;99.90;;;6.63;100.00;102243.03;2567561;30;137488;-39
2021/12/13 06:00:32;;;;;;;6.50;3.88;;;8.20;99.90;;;6.64;100.00;102244.75;2571544;30;137374;-39
2021/12/13 06:03:16;;;;;;;6.78;3.85;;;8.30;99.90;;;6.69;100.00;102250.56;2569879;30;138313;-39
2021/12/13 06:05:49;;;;;;;6.50;3.70;;;8.30;99.90;;;6.70;100.00;102259.53;2569971;30;137723;-39
2021/12/13 06:08:28;;;;;;;8.98;3.42;;;8.30;99.90;;;6.66;100.00;102255.44;2569680;30;138262;-39
2021/12/13 06:11:11;;;;;;;7.22;4.20;;;8.30;99.90;;;6.68;100.00;102253.41;2568481;30;136945;-39
2021/12/13 06:13:46;;;;;;;7.60;3.88;;;8.30;99.90;;;6.68;100.00;102259.72;2569000;30;138268;-39
2021/12/13 06:16:40;;;;;;;5.70;3.40;;;8.30;99.90;;;6.67;100.00;102263.44;2566503;30;136835;-39
2021/12/13 06:19:28;;;;;;;6.95;3.42;;;8.30;99.90;;;6.67;100.00;102258.00;2565795;30;138322;-39
2021/12/13 06:22:23;;;;;;;6.25;3.60;;;8.30;99.90;;;6.64;100.00;102261.03;2568001;30;136766;-39
2021/12/13 06:25:03;;;;;;;7.00;3.50;;;8.30;99.90;;;6.62;100.00;102260.28;2568092;30;136823;-39
2021/12/13 06:27:39;;;;;;;6.80;3.60;;;8.20;99.90;;;6.60;100.00;102255.03;2568626;30;136996;-39
2021/12/13 06:30:16;;;;;;;5.97;3.50;;;8.30;99.90;;;6.59;100.00;102261.47;2567424;30;137147;-39
2021/12/13 06:32:58;;;;;;;5.65;3.72;;;8.20;99.90;;;6.59;100.00;102255.19;2569271;30;137568;-39
2021/12/13 06:35:46;;;;;;;6.47;3.65;;;8.20;99.90;;;6.57;100.00;102251.75;2569104;30;137455;-39
2021/12/13 06:38:19;;;;;;;6.25;3.42;;;8.20;99.90;;;6.60;100.00;102259.59;2567965;30;137055;-39
2021/12/13 06:41:17;;;;;;;5.82;3.47;;;8.20;99.90;;;6.57;100.00;102262.63;2569033;30;139195;-39
2021/12/13 06:44:18;;;;;;;7.15;3.78;;;8.20;99.90;;;6.57;100.00;102257.19;2571690;30;136706;-39
2021/12/13 06:47:12;;;;;;;5.05;3.10;;;8.20;99.90;;;6.56;100.00;102255.47;2569673;30;138294;-39
2021/12/13 06:49:52;;;;;;;5.68;3.22;;;8.20;99.90;;;6.55;100.00;102259.19;2568569;30;138073;-39
2021/12/13 06:52:32;;;;;;;6.25;3.20;;;8.20;99.90;;;6.56;100.00;102263.63;2569038;30;139089;-39
2021/12/13 06:55:12;;;;;;;5.55;3.30;;;8.20;99.90;;;6.53;100.00;102263.91;2569444;30;137371;-39
2021/12/13 06:57:54;;;;;;;6.78;3.58;;;8.20;99.90;;;6.50;100.00;102256.97;2569656;30;137151;-39
2021/12/13 07:00:21;;;;;;;6.18;3.53;;;8.20;99.90;;;6.55;100.00;102259.19;2568951;30;137727;-39
2021/12/13 07:02:58;;;;;;;4.72;2.80;;;8.20;99.90;;;6.52;100.00;102260.38;2568619;30;139089;-39
2021/12/13 07:05:45;;;;;;;6.78;3.42;;;8.10;99.90;;;6.52;100.00;102264.94;2568885;30;137856;-39
2021/12/13 07:08:34;;;;;;;6.25;3.67;;;8.10;99.90;;;6.52;100.00;102268.50;2569539;30;138230;-39
2021/12/13 07:11:12;;;;;;;6.30;3.83;;;8.10;99.90;;;6.52;100.00;102262.22;2568422;30;137767;-39
2021/12/13 07:14:02;;;;;;;5.63;3.33;;;8.10;99.90;;;6.51;100.00;102263.22;2571084;30;137352;-39
2021/12/13 07:16:38;;;;;;;5.65;3.55;;;8.10;99.90;;;6.49;100.00;102271.50;2567993;30;137746;-39
2021/12/13 07:19:19;;;;;;;5.53;3.63;;;8.10;99.90;;;6.48;100.00;102270.66;2568840;30;137154;-39
2021/12/13 07:22:04;;;;;;;6.80;3.55;;;8.10;99.90;;;6.47;100.00;102279.78;2568793;30;137161;-39
2021/12/13 07:24:43;;;;;;;8.55;4.25;;;8.10;99.90;;;6.46;100.00;102291.63;2566349;30;138581;-39
2021/12/13 07:27:48;;;;;;;9.25;5.03;;;8.10;99.90;;;6.43;100.00;102291.06;2569918;30;137451;-39
2021/12/13 07:30:30;;;;;;;8.97;5.10;;;8.10;99.90;;;6.42;100.00;102287.53;2567668;30;139516;-39
2021/12/13 07:33:04;;;;;;;7.60;5.20;;;8.00;99.90;;;6.44;100.00;102287.34;2568430;30;138393;-39
2021/12/13 07:35:42;;;;;;;7.63;5.18;;;8.10;99.90;;;6.45;100.00;102292.66;2569427;30;138295;-39
2021/12/13 07:38:18;;;;;;;9.53;5.80;;;8.10;99.90;;;6.44;100.00;102288.22;2570697;30;137491;-39
2021/12/13 07:40:49;;;;;;;10.15;5.57;;;8.10;99.90;;;6.43;100.00;102289.22;2571531;30;138197;-39
2021/12/13 07:43:38;;;;;;;9.27;5.10;;;8.00;99.90;;;6.43;100.00;102299.22;2569173;30;137735;-39
2021/12/13 07:46:29;;;;;;;10.25;6.43;;;8.00;99.90;;;6.42;100.00;102306.50;2568390;30;138470;-39
2021/12/13 07:49:09;;;;;;;12.27;7.35;;;8.00;99.90;;;6.43;100.00;102307.34;2568596;30;136988;-39
2021/12/13 07:51:47;;;;;;;12.25;6.53;;;8.00;99.90;;;6.46;100.00;102309.75;2570899;30;139339;-39
2021/12/13 07:54:18;;;;;;;11.00;7.20;;;8.10;99.90;;;6.47;100.00;102306.91;2568963;30;137148;-38
2021/12/13 07:57:18;;;;;;;12.68;7.85;;;8.10;99.90;;;6.52;100.00;102309.19;2567560;30;138517;-39
2021/12/13 07:59:47;;;;;;;13.75;6.88;;;8.10;99.90;;;6.48;100.00;102319.47;2567203;30;137546;-39
2021/12/13 08:02:33;;;;;;;10.93;6.95;;;8.10;99.90;;;6.47;100.00;102327.72;2567609;30;136817;-39
2021/12/13 08:05:13;;;;;;;9.60;5.78;;;8.10;99.90;;;6.47;100.00;102331.31;2568487;30;137130;-39
2021/12/13 08:07:54;;;;;;;11.05;5.97;;;8.10;99.90;;;6.49;100.00;102333.84;2570860;30;137385;-39
2021/12/13 08:10:26;;;;;;;8.02;4.32;;;8.10;99.90;;;6.47;100.00;102334.03;2568673;30;137406;-39
2021/12/13 08:13:02;;;;;;;7.45;4.18;;;8.10;99.90;;;6.50;100.00;102337.44;2569143;30;136894;-39
2021/12/13 08:15:47;;;;;;;6.25;4.00;;;8.10;99.90;;;6.53;100.00;102345.28;2566792;30;137374;-39
2021/12/13 08:18:39;;;;;;;6.90;3.80;;;8.10;99.90;;;6.53;100.00;102347.97;2569104;30;137788;-39
2021/12/13 08:21:21;;;;;;;7.53;3.97;;;8.10;99.90;;;6.53;100.00;102348.84;2566868;30;137321;-39
2021/12/13 08:23:56;;;;;;;5.80;3.42;;;8.10;99.90;;;6.57;100.00;102350.25;2569022;30;137021;-38
2021/12/13 08:26:41;;;;;;;7.18;3.15;;;8.20;99.90;;;6.58;100.00;102353.81;2568898;30;137362;-39
2021/12/13 08:29:31;;;;;;;6.20;2.80;;;8.20;99.90;;;6.58;100.00;102361.94;2569629;30;138335;-39
2021/12/13 08:32:07;;;;;;;5.15;2.95;;;8.20;99.90;;;6.59;100.00;102352.81;2567674;30;137245;-39
2021/12/13 08:34:48;;;;;;;5.57;2.90;;;8.20;99.90;;;6.61;100.00;102346.25;2567926;30;137463;-39
2021/12/13 08:37:18;;;;;;;7.65;2.58;;;8.20;99.90;;;6.63;100.00;102354.25;2569031;30;138252;-39
2021/12/13 08:39:51;;;;;;;6.82;2.60;;;8.20;99.90;;;6.62;100.00;102349.78;2566659;30;137524;-39
2021/12/13 08:42:24;;;;;;;5.28;2.45;;;8.20;99.90;;;6.65;100.00;102357.66;2569956;30;138656;-39
2021/12/13 08:45:03;;;;;;;5.43;2.50;;;8.20;99.90;;;6.67;100.00;102357.50;2568077;30;138186;-39
2021/12/13 08:47:52;;;;;;;5.30;2.30;;;8.20;99.90;;;6.67;100.00;102347.50;2570589;30;138237;-39
2021/12/13 08:50:42;;;;;;;6.47;2.63;;;8.30;99.90;;;6.71;100.00;102354.34;2569258;30;138376;-39
2021/12/13 08:53:36;;;;;;;4.43;2.33;;;8.30;99.90;;;6.72;100.00;102353.34;2569767;30;138065;-39
2021/12/13 08:56:21;;;;;;;5.47;2.50;;;8.30;99.90;;;6.83;100.00;102351.41;2569347;30;138176;-39
2021/12/13 08:59:05;;;;;;;4.18;2.80;;;8.40;99.90;;;6.85;100.00;102352.13;2570343;30;137550;-39
2021/12/13 09:01:46;;;;;;;5.22;2.30;;;8.40;99.90;;;6.87;100.00;102352.81;2567081;30;138703;-39
2021/12/13 09:04:32;;;;;;;6.32;2.40;;;8.50;99.90;;;6.91;100.00;102351.53;2567686;30;137496;-39
2021/12/13 09:07:05;;;;;;;5.38;2.40;;;8.50;99.90;;;6.90;100.00;102355.25;2568864;30;138359;-39
2021/12/13 09:09:40;;;;;;;4.97;2.38;;;8.50;99.90;;;6.90;100.00;102349.84;2569672;30;138320;-39
2021/12/13 09:12:11;;;;;;;4.25;2.20;;;8.50;99.90;;;6.96;100.00;102343.81;2569778;30;136713;-39
2021/12/13 09:14:50;;;;;;;4.93;2.38;;;8.50;99.90;;;6.96;100.00;102359.22;2567539;30;137586;-39
2021/12/13 09:17:38;;;;;;;4.38;2.05;;;8.50;99.90;;;6.97;100.00;102352.78;2566284;30;138971;-39
2021/12/13 09:20:24;;;;;;;5.68;2.38;;;8.50;99.90;;;7.03;100.00;102349.47;2569242;30;137487;-39
2021/12/13 09:23:17;;;;;;;6.78;2.53;;;8.60;99.90;;;7.04;100.00;102351.19;2569394;30;138953;-39
2021/12/13 09:25:59;;;;;;;6.18;2.10;;;8.60;99.90;;;7.08;100.00;102357.16;2568674;30;137622;-39
2021/12/13 09:28:51;;;;;;;5.68;2.20;;;8.60;99.90;;;7.07;100.00;102355.44;2570134;30;138979;-39
2021/12/13 09:31:34;;;;;;;5.22;2.33;;;8.60;99.90;;;7.15;100.00;102359.13;2566371;30;136884;-39
2021/12/13 09:34:19;;;;;;;4.55;2.20;;;8.70;99.90;;;7.15;100.00;102360.97;2567219;30;137080;-39
2021/12/13 09:36:54;;;;;;;4.47;2.13;;;8.70;99.90;;;7.10;100.00;102360.56;2572967;30;138060;-39
2021/12/13 09:39:29;;;;;;;4.22;2.38;;;8.70;99.90;;;7.14;100.00;102373.69;2567770;30;136736;-39
2021/12/13 09:42:00;;;;;;;4.32;2.20;;;8.70;99.90;;;7.17;100.00;102380.69;2567610;30;137232;-39
2021/12/13 09:44:54;;;;;;;4.55;1.98;;;8.70;99.90;;;7.20;100.00;102377.66;2567365;30;138262;-39
2021/12/13 09:47:40;;;;;;;4.10;2.10;;;8.70;99.90;;;7.24;100.00;102381.78;2568046;30;138280;-39
2021/12/13 09:50:12;;;;;;;4.25;2.30;;;8.80;99.90;;;7.25;100.00;102377.19;2567467;30;137767;-39
2021/12/13 09:52:54;;;;;;;3.95;2.30;;;8.80;99.90;;;7.25;100.00;102385.34;2568851;30;137497;-39
2021/12/13 09:55:29;;;;;;;4.70;2.20;;;8.80;99.90;;;7.25;100.00;102380.78;2567021;30;138243;-39
2021/12/13 09:58:17;;;;;;;4.88;2.65;;;8.80;99.90;;;7.31;100.00;102380.16;2568770;30;137544;-39
2021/12/13 10:01:16;;;;;;;5.40;2.97;;;8.80;99.90;;;7.30;100.00;102373.03;2568475;30;138367;-39
2021/12/13 10:04:09;;;;;;;4.97;2.57;;;8.80;99.90;;;7.40;100.00;102385.66;2568546;30;138273;-39
2021/12/13 10:07:13;;;;;;;5.88;2.75;;;8.90;99.90;;;7.45;100.00;102376.06;2566144;30;138460;-39
2021/12/13 10:09:56;;;;;;;5.30;2.70;;;9.00;99.90;;;7.49;100.00;102380.16;2566039;30;137946;-39
2021/12/13 10:12:35;;;;;;;5.22;3.00;;;9.00;99.90;;;7.53;100.00;102382.56;2567345;30;139342;-39
2021/12/13 10:15:14;;;;;;;4.97;2.60;;;9.00;99.90;;;7.59;100.00;102380.09;2568402;30;137367;-39
2021/12/13 10:17:47;;;;;;;4.97;2.67;;;9.10;99.90;;;7.62;100.00;102378.97;2568408;30;137352;-39
2021/12/13 10:20:27;;;;;;;4.45;2.72;;;9.10;99.90;;;7.65;100.00;102377.78;2568265;30;136799;-39
2021/12/13 10:22:55;;;;;;;7.75;2.90;;;9.20;99.90;;;7.73;100.00;102376.00;2568110;30;137304;-39
2021/12/13 10:25:29;;;;;;;4.22;2.60;;;9.20;99.90;;;7.80;100.00;102378.09;2567050;30;137638;-39
2021/12/13 10:27:59;;;;;;;4.35;2.50;;;9.30;99.90;;;7.90;100.00;102377.00;2567757;30;138270;-39
2021/12/13 10:30:39;;;;;;;5.18;3.13;;;9.40;99.90;;;7.97;100.00;102376.38;2567423;30;137423;-39
2021/12/13 10:33:10;;;;;;;5.32;3.08;;;9.40;99.90;;;8.02;100.00;102366.72;2567266;30;138259;-39
2021/12/13 10:35:43;;;;;;;4.18;3.00;;;9.50;99.90;;;8.10;100.00;102376.81;2568239;30;137443;-39
2021/12/13 10:38:21;;;;;;;7.50;3.15;;;9.50;99.90;;;8.15;100.00;102377.19;2568182;30;137333;-39
2021/12/13 10:41:22;;;;;;;5.75;2.92;;;9.60;99.90;;;8.23;100.00;102378.28;2566823;30;137608;-39
2021/12/13 10:43:59;;;;;;;6.20;3.50;;;9.70;99.90;;;8.26;100.00;102373.34;2567077;30;138351;-42
2021/12/13 10:46:34;;;;;;;5.32;2.97;;;9.70;99.90;;;8.26;100.00;102376.09;2568322;30;137644;-39
2021/12/13 10:49:32;;;;;;;6.15;3.10;;;9.70;99.90;;;8.20;100.00;102380.28;2568812;30;137485;-39
2021/12/13 10:52:27;;;;;;;5.85;3.00;;;9.70;99.90;;;8.24;100.00;102375.38;2568685;30;136803;-40
2021/12/13 10:55:00;;;;;;;6.28;3.03;;;9.70;99.90;;;8.24;100.00;102377.28;2565989;30;137824;-39
2021/12/13 10:57:35;;;;;;;4.55;2.65;;;9.70;99.90;;;8.24;100.00;102377.28;2567966;30;137397;-39
2021/12/13 11:00:11;;;;;;;4.88;2.58;;;9.70;99.90;;;8.25;100.00;102365.38;2569197;30;138368;-39
2021/12/13 11:02:39;;;;;;;4.82;2.67;;;9.70;99.90;;;8.26;100.00;102367.09;2566891;30;136851;-39
2021/12/13 11:05:17;;;;;;;5.90;2.90;;;9.80;99.90;;;8.26;100.00;102367.09;2566159;30;139446;-39
2021/12/13 11:07:48;;;;;;;6.05;2.90;;;9.80;99.90;;;8.23;100.00;102362.81;2568993;30;137564;-39
2021/12/13 11:10:38;;;;;;;5.10;2.58;;;9.70;99.90;;;8.23;100.00;102379.13;2568399;30;138470;-39
2021/12/13 11:13:28;;;;;;;4.40;2.53;;;9.70;99.90;;;8.21;100.00;102371.09;2568598;30;136931;-39
2021/12/13 11:16:11;;;;;;;4.43;2.20;;;9.70;99.90;;;8.22;100.00;102371.97;2567276;30;138830;-39
2021/12/13 11:18:41;;;;;;;4.72;2.58;;;9.70;99.90;;;8.27;100.00;102368.78;2569331;30;136722;-39